Terminal Aerodrome Forecast
Issued by NWS

Home | Current Version | Previous Version | Text Only | Print | Product List | Glossary On
Versions: 1 2 3 4 5 6 7 8 9 10 11 12 13 14 15 16 17 18 19 20 21 22 23 24 25 26 27 28
000
FTUS46 KSEW 231300 AAC
TAFSEA
TAF AMD
KSEA 231347Z 2314/2418 VRB03KT P6SM -TSRA SCT015 BKN040CB OVC120
      TEMPO 2314/2315 3SM TSRA OVC015CB
     FM231600 VRB04KT P6SM -SHRA VCTS BKN040CB OVC080
     FM231800 21010KT P6SM -SHRA VCTS BKN020CB OVC030
     FM240300 21014KT P6SM -SHRA SCT015 BKN025 OVC040=

USA.gov is the U.S. government's official web portal to all federal, state and local government web resources and services.